Terminal Aerodrome Forecast
Issued by NWS Shreveport, LA

Home | Current Version | Previous Version | Text Only | Print | Product List | Glossary On
Versions: 1 2 3 4 5 6 7 8 9 10 11 12
000
FTUS44 KSHV 112322
TAFELD
TAF
KELD 112322Z 1200/1224 24005KT P6SM FEW250
     FM120500 30007KT P6SM SKC
     FM121500 34010G16KT P6SM SKC
     FM121800 30007KT P6SM SKC=

USA.gov is the U.S. government's official web portal to all federal, state and local government web resources and services.